sensor_id;sensor_type;location;lat;lon;timestamp;P1;durP1;ratioP1;P2;durP2;ratioP2
34481;SDS011;20720;48.886;9.388;2024-02-04T00:00:53;0.65;;;0.20;;
34481;SDS011;20720;48.886;9.388;2024-02-04T00:03:18;0.43;;;0.20;;
34481;SDS011;20720;48.886;9.388;2024-02-04T00:05:44;0.55;;;0.20;;
34481;SDS011;20720;48.886;9.388;2024-02-04T00:08:10;0.20;;;0.10;;
34481;SDS011;20720;48.886;9.388;2024-02-04T00:10:37;2.03;;;0.20;;
34481;SDS011;20720;48.886;9.388;2024-02-04T00:13:03;0.40;;;0.15;;
34481;SDS011;20720;48.886;9.388;2024-02-04T00:15:28;0.57;;;0.30;;
34481;SDS011;20720;48.886;9.388;2024-02-04T00:17:53;1.10;;;0.25;;
34481;SDS011;20720;48.886;9.388;2024-02-04T00:20:19;0.80;;;0.40;;
34481;SDS011;20720;48.886;9.388;2024-02-04T00:22:44;0.75;;;0.40;;
34481;SDS011;20720;48.886;9.388;2024-02-04T00:25:09;1.42;;;0.40;;
34481;SDS011;20720;48.886;9.388;2024-02-04T00:27:36;1.50;;;0.40;;
34481;SDS011;20720;48.886;9.388;2024-02-04T00:30:02;0.70;;;0.30;;
34481;SDS011;20720;48.886;9.388;2024-02-04T00:32:28;0.55;;;0.30;;
34481;SDS011;20720;48.886;9.388;2024-02-04T00:34:53;1.30;;;0.30;;
34481;SDS011;20720;48.886;9.388;2024-02-04T00:37:18;1.63;;;0.40;;
34481;SDS011;20720;48.886;9.388;2024-02-04T00:39:44;1.00;;;0.40;;
34481;SDS011;20720;48.886;9.388;2024-02-04T00:42:09;0.93;;;0.50;;
34481;SDS011;20720;48.886;9.388;2024-02-04T00:44:35;1.73;;;0.65;;
34481;SDS011;20720;48.886;9.388;2024-02-04T00:47:01;1.13;;;0.50;;
34481;SDS011;20720;48.886;9.388;2024-02-04T00:49:26;0.95;;;0.43;;
34481;SDS011;20720;48.886;9.388;2024-02-04T00:51:52;1.38;;;0.60;;
34481;SDS011;20720;48.886;9.388;2024-02-04T00:54:18;0.85;;;0.40;;
34481;SDS011;20720;48.886;9.388;2024-02-04T00:56:43;1.30;;;0.45;;
34481;SDS011;20720;48.886;9.388;2024-02-04T00:59:08;0.80;;;0.40;;
34481;SDS011;20720;48.886;9.388;2024-02-04T01:01:34;1.50;;;0.50;;
34481;SDS011;20720;48.886;9.388;2024-02-04T01:03:59;1.85;;;0.32;;
34481;SDS011;20720;48.886;9.388;2024-02-04T01:06:24;1.27;;;0.50;;
34481;SDS011;20720;48.886;9.388;2024-02-04T01:08:50;0.85;;;0.30;;
34481;SDS011;20720;48.886;9.388;2024-02-04T01:11:16;1.15;;;0.40;;
34481;SDS011;20720;48.886;9.388;2024-02-04T01:13:41;1.55;;;0.45;;
34481;SDS011;20720;48.886;9.388;2024-02-04T01:16:06;0.70;;;0.40;;
34481;SDS011;20720;48.886;9.388;2024-02-04T01:18:32;1.15;;;0.50;;
34481;SDS011;20720;48.886;9.388;2024-02-04T01:20:58;1.50;;;0.60;;
34481;SDS011;20720;48.886;9.388;2024-02-04T01:23:25;1.08;;;0.50;;
34481;SDS011;20720;48.886;9.388;2024-02-04T01:25:50;1.00;;;0.30;;
34481;SDS011;20720;48.886;9.388;2024-02-04T01:28:15;0.90;;;0.30;;
34481;SDS011;20720;48.886;9.388;2024-02-04T01:30:41;1.50;;;0.50;;
34481;SDS011;20720;48.886;9.388;2024-02-04T01:33:06;0.93;;;0.50;;
34481;SDS011;20720;48.886;9.388;2024-02-04T01:35:31;1.30;;;0.60;;
34481;SDS011;20720;48.886;9.388;2024-02-04T01:37:56;0.73;;;0.40;;
34481;SDS011;20720;48.886;9.388;2024-02-04T01:40:22;0.68;;;0.22;;
34481;SDS011;20720;48.886;9.388;2024-02-04T01:42:47;1.08;;;0.45;;
34481;SDS011;20720;48.886;9.388;2024-02-04T01:45:12;1.08;;;0.50;;
34481;SDS011;20720;48.886;9.388;2024-02-04T01:47:37;0.60;;;0.30;;
34481;SDS011;20720;48.886;9.388;2024-02-04T01:50:03;0.70;;;0.30;;
34481;SDS011;20720;48.886;9.388;2024-02-04T01:52:29;0.95;;;0.38;;
34481;SDS011;20720;48.886;9.388;2024-02-04T01:54:56;2.08;;;0.30;;
34481;SDS011;20720;48.886;9.388;2024-02-04T01:57:24;0.85;;;0.40;;
34481;SDS011;20720;48.886;9.388;2024-02-04T01:59:49;1.48;;;0.50;;
34481;SDS011;20720;48.886;9.388;2024-02-04T02:02:17;0.52;;;0.22;;
34481;SDS011;20720;48.886;9.388;2024-02-04T02:04:43;0.45;;;0.30;;
34481;SDS011;20720;48.886;9.388;2024-02-04T02:07:08;0.93;;;0.30;;
34481;SDS011;20720;48.886;9.388;2024-02-04T02:09:34;0.95;;;0.32;;
34481;SDS011;20720;48.886;9.388;2024-02-04T02:12:09;0.88;;;0.40;;
34481;SDS011;20720;48.886;9.388;2024-02-04T02:14:39;1.02;;;0.45;;
34481;SDS011;20720;48.886;9.388;2024-02-04T02:17:12;0.90;;;0.28;;
34481;SDS011;20720;48.886;9.388;2024-02-04T02:19:54;0.85;;;0.22;;
34481;SDS011;20720;48.886;9.388;2024-02-04T02:25:28;0.60;;;0.25;;
34481;SDS011;20720;48.886;9.388;2024-02-04T02:27:55;0.70;;;0.30;;
34481;SDS011;20720;48.886;9.388;2024-02-04T02:30:20;0.73;;;0.30;;
34481;SDS011;20720;48.886;9.388;2024-02-04T02:32:46;0.85;;;0.40;;
34481;SDS011;20720;48.886;9.388;2024-02-04T02:35:12;1.27;;;0.40;;
34481;SDS011;20720;48.886;9.388;2024-02-04T02:42:45;3.20;;;0.35;;
34481;SDS011;20720;48.886;9.388;2024-02-04T02:45:11;0.80;;;0.40;;
34481;SDS011;20720;48.886;9.388;2024-02-04T02:47:38;0.95;;;0.32;;
34481;SDS011;20720;48.886;9.388;2024-02-04T02:50:06;0.73;;;0.30;;
34481;SDS011;20720;48.886;9.388;2024-02-04T02:52:32;0.70;;;0.30;;
34481;SDS011;20720;48.886;9.388;2024-02-04T02:54:57;0.52;;;0.25;;
34481;SDS011;20720;48.886;9.388;2024-02-04T02:57:23;0.90;;;0.30;;
34481;SDS011;20720;48.886;9.388;2024-02-04T02:59:48;0.90;;;0.43;;
34481;SDS011;20720;48.886;9.388;2024-02-04T03:02:13;0.60;;;0.30;;
34481;SDS011;20720;48.886;9.388;2024-02-04T03:04:39;0.22;;;0.10;;
34481;SDS011;20720;48.886;9.388;2024-02-04T03:07:04;0.40;;;0.10;;
34481;SDS011;20720;48.886;9.388;2024-02-04T03:09:31;0.85;;;0.25;;
34481;SDS011;20720;48.886;9.388;2024-02-04T03:11:56;0.70;;;0.32;;
34481;SDS011;20720;48.886;9.388;2024-02-04T03:14:23;0.75;;;0.30;;
34481;SDS011;20720;48.886;9.388;2024-02-04T03:16:48;0.52;;;0.20;;
34481;SDS011;20720;48.886;9.388;2024-02-04T03:19:13;0.73;;;0.22;;
34481;SDS011;20720;48.886;9.388;2024-02-04T03:21:39;0.88;;;0.30;;
34481;SDS011;20720;48.886;9.388;2024-02-04T03:24:04;0.50;;;0.20;;
34481;SDS011;20720;48.886;9.388;2024-02-04T03:26:30;0.30;;;0.10;;
34481;SDS011;20720;48.886;9.388;2024-02-04T03:28:55;1.13;;;0.50;;
34481;SDS011;20720;48.886;9.388;2024-02-04T03:31:21;0.70;;;0.30;;
34481;SDS011;20720;48.886;9.388;2024-02-04T03:33:47;0.50;;;0.20;;
34481;SDS011;20720;48.886;9.388;2024-02-04T03:36:15;1.45;;;0.32;;
34481;SDS011;20720;48.886;9.388;2024-02-04T03:38:49;0.50;;;0.20;;
34481;SDS011;20720;48.886;9.388;2024-02-04T03:41:15;0.43;;;0.22;;
34481;SDS011;20720;48.886;9.388;2024-02-04T03:43:40;0.60;;;0.25;;
34481;SDS011;20720;48.886;9.388;2024-02-04T03:46:05;0.93;;;0.30;;
34481;SDS011;20720;48.886;9.388;2024-02-04T03:48:31;0.47;;;0.20;;
34481;SDS011;20720;48.886;9.388;2024-02-04T03:50:56;0.50;;;0.20;;
34481;SDS011;20720;48.886;9.388;2024-02-04T03:53:21;0.70;;;0.25;;
34481;SDS011;20720;48.886;9.388;2024-02-04T03:55:48;0.50;;;0.17;;
34481;SDS011;20720;48.886;9.388;2024-02-04T03:58:14;0.47;;;0.25;;
34481;SDS011;20720;48.886;9.388;2024-02-04T04:00:39;0.20;;;0.10;;
34481;SDS011;20720;48.886;9.388;2024-02-04T04:03:05;0.60;;;0.30;;
34481;SDS011;20720;48.886;9.388;2024-02-04T04:05:30;1.10;;;0.30;;
34481;SDS011;20720;48.886;9.388;2024-02-04T04:07:55;0.60;;;0.25;;
34481;SDS011;20720;48.886;9.388;2024-02-04T04:10:20;1.10;;;0.40;;
34481;SDS011;20720;48.886;9.388;2024-02-04T04:12:46;1.10;;;0.30;;
34481;SDS011;20720;48.886;9.388;2024-02-04T04:15:11;0.35;;;0.20;;
34481;SDS011;20720;48.886;9.388;2024-02-04T04:17:36;0.82;;;0.35;;
34481;SDS011;20720;48.886;9.388;2024-02-04T04:20:04;0.60;;;0.20;;
34481;SDS011;20720;48.886;9.388;2024-02-04T04:22:31;0.80;;;0.40;;
34481;SDS011;20720;48.886;9.388;2024-02-04T04:24:56;0.73;;;0.32;;
34481;SDS011;20720;48.886;9.388;2024-02-04T04:27:21;1.13;;;0.32;;
34481;SDS011;20720;48.886;9.388;2024-02-04T04:29:46;0.98;;;0.40;;
34481;SDS011;20720;48.886;9.388;2024-02-04T04:32:12;0.88;;;0.30;;
34481;SDS011;20720;48.886;9.388;2024-02-04T04:34:37;1.38;;;0.38;;
34481;SDS011;20720;48.886;9.388;2024-02-04T04:37:02;0.85;;;0.38;;
34481;SDS011;20720;48.886;9.388;2024-02-04T04:39:28;1.58;;;0.30;;
34481;SDS011;20720;48.886;9.388;2024-02-04T04:41:53;0.60;;;0.30;;
34481;SDS011;20720;48.886;9.388;2024-02-04T04:44:18;0.40;;;0.20;;
34481;SDS011;20720;48.886;9.388;2024-02-04T04:46:43;0.63;;;0.25;;
34481;SDS011;20720;48.886;9.388;2024-02-04T04:49:09;1.10;;;0.20;;
34481;SDS011;20720;48.886;9.388;2024-02-04T04:51:34;0.50;;;0.20;;
34481;SDS011;20720;48.886;9.388;2024-02-04T04:54:00;1.35;;;0.28;;
34481;SDS011;20720;48.886;9.388;2024-02-04T04:56:25;0.75;;;0.38;;
34481;SDS011;20720;48.886;9.388;2024-02-04T04:58:50;0.45;;;0.20;;
34481;SDS011;20720;48.886;9.388;2024-02-04T05:01:16;0.95;;;0.50;;
34481;SDS011;20720;48.886;9.388;2024-02-04T05:03:41;0.50;;;0.25;;
34481;SDS011;20720;48.886;9.388;2024-02-04T05:06:07;0.65;;;0.20;;
34481;SDS011;20720;48.886;9.388;2024-02-04T05:08:32;0.68;;;0.30;;
34481;SDS011;20720;48.886;9.388;2024-02-04T05:10:57;0.80;;;0.30;;
34481;SDS011;20720;48.886;9.388;2024-02-04T05:13:22;0.65;;;0.20;;
34481;SDS011;20720;48.886;9.388;2024-02-04T05:15:48;0.35;;;0.20;;
34481;SDS011;20720;48.886;9.388;2024-02-04T05:18:13;1.05;;;0.40;;
34481;SDS011;20720;48.886;9.388;2024-02-04T05:20:38;0.70;;;0.32;;
34481;SDS011;20720;48.886;9.388;2024-02-04T05:23:03;0.32;;;0.20;;
34481;SDS011;20720;48.886;9.388;2024-02-04T05:25:29;0.65;;;0.40;;
34481;SDS011;20720;48.886;9.388;2024-02-04T05:27:54;0.40;;;0.20;;
34481;SDS011;20720;48.886;9.388;2024-02-04T05:30:19;0.30;;;0.17;;
34481;SDS011;20720;48.886;9.388;2024-02-04T05:32:45;0.73;;;0.20;;
34481;SDS011;20720;48.886;9.388;2024-02-04T05:35:10;0.65;;;0.22;;
34481;SDS011;20720;48.886;9.388;2024-02-04T05:37:35;0.60;;;0.20;;
34481;SDS011;20720;48.886;9.388;2024-02-04T05:40:01;0.80;;;0.40;;
34481;SDS011;20720;48.886;9.388;2024-02-04T05:42:27;0.60;;;0.17;;
34481;SDS011;20720;48.886;9.388;2024-02-04T05:44:52;1.15;;;0.30;;
34481;SDS011;20720;48.886;9.388;2024-02-04T05:47:17;0.77;;;0.30;;
34481;SDS011;20720;48.886;9.388;2024-02-04T05:49:43;0.32;;;0.10;;
34481;SDS011;20720;48.886;9.388;2024-02-04T05:52:09;0.98;;;0.22;;
34481;SDS011;20720;48.886;9.388;2024-02-04T05:54:37;0.40;;;0.20;;
34481;SDS011;20720;48.886;9.388;2024-02-04T05:57:04;0.50;;;0.20;;
34481;SDS011;20720;48.886;9.388;2024-02-04T05:59:30;3.10;;;1.60;;
34481;SDS011;20720;48.886;9.388;2024-02-04T06:01:55;1.15;;;0.57;;
34481;SDS011;20720;48.886;9.388;2024-02-04T06:04:20;2.20;;;0.45;;
34481;SDS011;20720;48.886;9.388;2024-02-04T06:06:45;0.73;;;0.30;;
34481;SDS011;20720;48.886;9.388;2024-02-04T06:09:11;1.05;;;0.40;;
34481;SDS011;20720;48.886;9.388;2024-02-04T06:11:36;1.02;;;0.32;;
34481;SDS011;20720;48.886;9.388;2024-02-04T06:14:01;0.65;;;0.30;;
34481;SDS011;20720;48.886;9.388;2024-02-04T06:16:26;1.42;;;0.30;;
34481;SDS011;20720;48.886;9.388;2024-02-04T06:18:52;0.47;;;0.20;;
34481;SDS011;20720;48.886;9.388;2024-02-04T06:21:20;0.28;;;0.15;;
34481;SDS011;20720;48.886;9.388;2024-02-04T06:23:45;0.50;;;0.13;;
34481;SDS011;20720;48.886;9.388;2024-02-04T06:26:10;0.63;;;0.20;;
34481;SDS011;20720;48.886;9.388;2024-02-04T06:28:36;0.32;;;0.10;;
34481;SDS011;20720;48.886;9.388;2024-02-04T06:31:01;0.40;;;0.20;;
34481;SDS011;20720;48.886;9.388;2024-02-04T06:33:27;0.60;;;0.20;;
34481;SDS011;20720;48.886;9.388;2024-02-04T06:35:52;3.05;;;0.20;;
34481;SDS011;20720;48.886;9.388;2024-02-04T06:38:17;0.82;;;0.35;;
34481;SDS011;20720;48.886;9.388;2024-02-04T06:40:43;0.77;;;0.10;;
34481;SDS011;20720;48.886;9.388;2024-02-04T06:43:08;0.68;;;0.20;;
34481;SDS011;20720;48.886;9.388;2024-02-04T06:45:33;0.50;;;0.20;;
34481;SDS011;20720;48.886;9.388;2024-02-04T06:47:59;0.30;;;0.13;;
34481;SDS011;20720;48.886;9.388;2024-02-04T06:50:25;0.77;;;0.30;;
34481;SDS011;20720;48.886;9.388;2024-02-04T06:52:50;0.52;;;0.20;;
34481;SDS011;20720;48.886;9.388;2024-02-04T06:55:15;0.32;;;0.10;;
34481;SDS011;20720;48.886;9.388;2024-02-04T06:57:40;0.73;;;0.28;;
34481;SDS011;20720;48.886;9.388;2024-02-04T07:00:06;0.77;;;0.30;;
34481;SDS011;20720;48.886;9.388;2024-02-04T07:02:33;0.60;;;0.20;;
34481;SDS011;20720;48.886;9.388;2024-02-04T07:05:01;1.20;;;0.30;;
34481;SDS011;20720;48.886;9.388;2024-02-04T07:07:26;0.90;;;0.30;;
34481;SDS011;20720;48.886;9.388;2024-02-04T07:09:51;0.50;;;0.22;;
34481;SDS011;20720;48.886;9.388;2024-02-04T07:12:17;0.73;;;0.30;;
34481;SDS011;20720;48.886;9.388;2024-02-04T07:14:46;0.43;;;0.20;;
34481;SDS011;20720;48.886;9.388;2024-02-04T07:17:11;0.30;;;0.20;;
34481;SDS011;20720;48.886;9.388;2024-02-04T07:19:37;0.60;;;0.30;;
34481;SDS011;20720;48.886;9.388;2024-02-04T07:22:02;0.68;;;0.30;;
34481;SDS011;20720;48.886;9.388;2024-02-04T07:24:28;0.50;;;0.20;;
34481;SDS011;20720;48.886;9.388;2024-02-04T07:26:53;0.28;;;0.17;;
34481;SDS011;20720;48.886;9.388;2024-02-04T07:29:18;0.30;;;0.13;;
34481;SDS011;20720;48.886;9.388;2024-02-04T07:31:44;0.60;;;0.30;;
34481;SDS011;20720;48.886;9.388;2024-02-04T07:34:09;0.82;;;0.25;;
34481;SDS011;20720;48.886;9.388;2024-02-04T07:36:34;0.88;;;0.30;;
34481;SDS011;20720;48.886;9.388;2024-02-04T07:39:00;0.90;;;0.20;;
34481;SDS011;20720;48.886;9.388;2024-02-04T07:41:27;0.32;;;0.20;;
34481;SDS011;20720;48.886;9.388;2024-02-04T07:43:52;0.60;;;0.20;;
34481;SDS011;20720;48.886;9.388;2024-02-04T07:46:18;1.48;;;0.47;;
34481;SDS011;20720;48.886;9.388;2024-02-04T07:48:43;0.77;;;0.30;;
34481;SDS011;20720;48.886;9.388;2024-02-04T07:51:08;0.65;;;0.28;;
34481;SDS011;20720;48.886;9.388;2024-02-04T07:53:33;0.82;;;0.40;;
34481;SDS011;20720;48.886;9.388;2024-02-04T07:56:01;0.80;;;0.40;;
34481;SDS011;20720;48.886;9.388;2024-02-04T07:58:28;0.80;;;0.30;;
34481;SDS011;20720;48.886;9.388;2024-02-04T08:00:53;0.35;;;0.15;;
34481;SDS011;20720;48.886;9.388;2024-02-04T08:03:18;1.00;;;0.15;;
34481;SDS011;20720;48.886;9.388;2024-02-04T08:05:43;0.52;;;0.20;;
34481;SDS011;20720;48.886;9.388;2024-02-04T08:08:09;0.40;;;0.20;;
34481;SDS011;20720;48.886;9.388;2024-02-04T08:10:34;1.73;;;0.40;;
34481;SDS011;20720;48.886;9.388;2024-02-04T08:12:59;0.55;;;0.30;;
34481;SDS011;20720;48.886;9.388;2024-02-04T08:15:25;0.70;;;0.40;;
34481;SDS011;20720;48.886;9.388;2024-02-04T08:17:50;0.52;;;0.22;;
34481;SDS011;20720;48.886;9.388;2024-02-04T08:20:15;0.40;;;0.28;;
34481;SDS011;20720;48.886;9.388;2024-02-04T08:22:42;1.00;;;0.45;;
34481;SDS011;20720;48.886;9.388;2024-02-04T08:25:07;1.08;;;0.45;;
34481;SDS011;20720;48.886;9.388;2024-02-04T08:27:35;0.85;;;0.30;;
34481;SDS011;20720;48.886;9.388;2024-02-04T08:30:00;1.02;;;0.30;;
34481;SDS011;20720;48.886;9.388;2024-02-04T08:32:25;0.70;;;0.20;;
34481;SDS011;20720;48.886;9.388;2024-02-04T08:34:51;2.28;;;0.40;;
34481;SDS011;20720;48.886;9.388;2024-02-04T08:37:16;1.00;;;0.35;;
34481;SDS011;20720;48.886;9.388;2024-02-04T08:39:41;1.33;;;0.30;;
34481;SDS011;20720;48.886;9.388;2024-02-04T08:42:06;0.57;;;0.30;;
34481;SDS011;20720;48.886;9.388;2024-02-04T08:44:32;0.73;;;0.30;;
34481;SDS011;20720;48.886;9.388;2024-02-04T08:46:57;0.45;;;0.20;;
34481;SDS011;20720;48.886;9.388;2024-02-04T08:49:23;0.98;;;0.40;;
34481;SDS011;20720;48.886;9.388;2024-02-04T08:51:48;0.63;;;0.30;;
34481;SDS011;20720;48.886;9.388;2024-02-04T08:54:13;0.52;;;0.20;;
34481;SDS011;20720;48.886;9.388;2024-02-04T08:56:39;0.80;;;0.30;;
34481;SDS011;20720;48.886;9.388;2024-02-04T08:59:05;1.38;;;0.40;;
34481;SDS011;20720;48.886;9.388;2024-02-04T09:01:31;0.60;;;0.20;;
34481;SDS011;20720;48.886;9.388;2024-02-04T09:03:56;0.85;;;0.38;;
34481;SDS011;20720;48.886;9.388;2024-02-04T09:06:21;1.13;;;0.30;;
34481;SDS011;20720;48.886;9.388;2024-02-04T09:08:47;0.70;;;0.30;;
34481;SDS011;20720;48.886;9.388;2024-02-04T09:11:12;1.15;;;0.35;;
34481;SDS011;20720;48.886;9.388;2024-02-04T09:13:43;1.17;;;0.30;;
34481;SDS011;20720;48.886;9.388;2024-02-04T09:16:08;0.80;;;0.38;;
34481;SDS011;20720;48.886;9.388;2024-02-04T09:18:34;0.75;;;0.30;;
34481;SDS011;20720;48.886;9.388;2024-02-04T09:20:59;1.65;;;0.40;;
34481;SDS011;20720;48.886;9.388;2024-02-04T09:23:24;1.02;;;0.50;;
34481;SDS011;20720;48.886;9.388;2024-02-04T09:25:49;0.63;;;0.32;;
34481;SDS011;20720;48.886;9.388;2024-02-04T09:28:15;0.80;;;0.35;;
34481;SDS011;20720;48.886;9.388;2024-02-04T09:30:40;0.50;;;0.30;;
34481;SDS011;20720;48.886;9.388;2024-02-04T09:33:06;0.90;;;0.30;;
34481;SDS011;20720;48.886;9.388;2024-02-04T09:35:33;1.27;;;0.40;;
34481;SDS011;20720;48.886;9.388;2024-02-04T09:37:59;1.33;;;0.40;;
34481;SDS011;20720;48.886;9.388;2024-02-04T09:40:24;0.80;;;0.32;;
34481;SDS011;20720;48.886;9.388;2024-02-04T09:42:50;1.45;;;0.50;;
34481;SDS011;20720;48.886;9.388;2024-02-04T09:45:17;0.75;;;0.30;;
34481;SDS011;20720;48.886;9.388;2024-02-04T09:47:42;0.90;;;0.60;;
34481;SDS011;20720;48.886;9.388;2024-02-04T09:50:10;5.03;;;0.60;;
34481;SDS011;20720;48.886;9.388;2024-02-04T09:52:35;0.88;;;0.30;;
34481;SDS011;20720;48.886;9.388;2024-02-04T09:55:06;1.60;;;0.40;;
34481;SDS011;20720;48.886;9.388;2024-02-04T09:57:32;1.73;;;0.40;;
34481;SDS011;20720;48.886;9.388;2024-02-04T09:59:59;1.85;;;0.50;;
34481;SDS011;20720;48.886;9.388;2024-02-04T10:02:27;0.65;;;0.30;;
34481;SDS011;20720;48.886;9.388;2024-02-04T10:04:52;0.65;;;0.25;;
34481;SDS011;20720;48.886;9.388;2024-02-04T10:07:18;0.90;;;0.30;;
34481;SDS011;20720;48.886;9.388;2024-02-04T10:09:44;0.73;;;0.20;;
34481;SDS011;20720;48.886;9.388;2024-02-04T10:12:09;1.42;;;0.50;;
34481;SDS011;20720;48.886;9.388;2024-02-04T10:14:36;0.80;;;0.40;;
34481;SDS011;20720;48.886;9.388;2024-02-04T10:17:03;1.05;;;0.47;;
34481;SDS011;20720;48.886;9.388;2024-02-04T10:19:29;1.00;;;0.40;;
34481;SDS011;20720;48.886;9.388;2024-02-04T10:21:58;0.93;;;0.30;;
34481;SDS011;20720;48.886;9.388;2024-02-04T10:24:28;1.15;;;0.40;;
34481;SDS011;20720;48.886;9.388;2024-02-04T10:26:56;1.90;;;0.47;;
34481;SDS011;20720;48.886;9.388;2024-02-04T10:29:22;1.08;;;0.50;;
34481;SDS011;20720;48.886;9.388;2024-02-04T10:31:52;2.72;;;1.45;;
34481;SDS011;20720;48.886;9.388;2024-02-04T10:34:18;1.20;;;0.57;;
34481;SDS011;20720;48.886;9.388;2024-02-04T10:36:44;2.00;;;1.00;;
34481;SDS011;20720;48.886;9.388;2024-02-04T10:39:10;1.75;;;0.90;;
34481;SDS011;20720;48.886;9.388;2024-02-04T10:41:35;2.60;;;1.35;;
34481;SDS011;20720;48.886;9.388;2024-02-04T10:44:08;3.00;;;1.48;;
34481;SDS011;20720;48.886;9.388;2024-02-04T10:46:36;5.18;;;2.95;;
34481;SDS011;20720;48.886;9.388;2024-02-04T10:49:03;3.38;;;1.85;;
34481;SDS011;20720;48.886;9.388;2024-02-04T10:51:36;2.58;;;1.35;;
34481;SDS011;20720;48.886;9.388;2024-02-04T10:54:04;2.35;;;1.48;;
34481;SDS011;20720;48.886;9.388;2024-02-04T10:56:32;1.50;;;0.88;;
34481;SDS011;20720;48.886;9.388;2024-02-04T10:59:02;2.55;;;1.48;;
34481;SDS011;20720;48.886;9.388;2024-02-04T11:01:28;3.55;;;1.75;;
34481;SDS011;20720;48.886;9.388;2024-02-04T11:03:54;4.53;;;1.90;;
34481;SDS011;20720;48.886;9.388;2024-02-04T11:06:21;4.00;;;2.05;;
34481;SDS011;20720;48.886;9.388;2024-02-04T11:08:48;6.32;;;2.47;;
34481;SDS011;20720;48.886;9.388;2024-02-04T11:11:15;4.45;;;2.00;;
34481;SDS011;20720;48.886;9.388;2024-02-04T11:13:42;7.15;;;2.58;;
34481;SDS011;20720;48.886;9.388;2024-02-04T11:16:14;6.80;;;2.38;;
34481;SDS011;20720;48.886;9.388;2024-02-04T11:21:59;5.55;;;2.17;;
34481;SDS011;20720;48.886;9.388;2024-02-04T11:27:31;9.43;;;2.45;;
34481;SDS011;20720;48.886;9.388;2024-02-04T11:29:57;4.38;;;1.90;;
34481;SDS011;20720;48.886;9.388;2024-02-04T11:32:23;3.67;;;2.08;;
34481;SDS011;20720;48.886;9.388;2024-02-04T11:34:50;2.67;;;1.33;;
34481;SDS011;20720;48.886;9.388;2024-02-04T11:37:16;1.80;;;0.88;;
34481;SDS011;20720;48.886;9.388;2024-02-04T11:39:53;0.95;;;0.47;;
34481;SDS011;20720;48.886;9.388;2024-02-04T11:42:22;1.15;;;0.55;;
34481;SDS011;20720;48.886;9.388;2024-02-04T11:44:48;0.40;;;0.20;;
34481;SDS011;20720;48.886;9.388;2024-02-04T11:47:23;0.80;;;0.20;;
34481;SDS011;20720;48.886;9.388;2024-02-04T11:49:57;0.22;;;0.15;;
34481;SDS011;20720;48.886;9.388;2024-02-04T11:52:23;0.35;;;0.10;;
34481;SDS011;20720;48.886;9.388;2024-02-04T11:54:53;0.20;;;0.10;;
34481;SDS011;20720;48.886;9.388;2024-02-04T11:57:19;0.10;;;0.10;;
34481;SDS011;20720;48.886;9.388;2024-02-04T11:59:49;1.30;;;0.10;;
34481;SDS011;20720;48.886;9.388;2024-02-04T12:02:18;0.63;;;0.35;;
34481;SDS011;20720;48.886;9.388;2024-02-04T12:04:44;0.57;;;0.20;;
34481;SDS011;20720;48.886;9.388;2024-02-04T12:07:11;0.95;;;0.20;;
34481;SDS011;20720;48.886;9.388;2024-02-04T12:09:38;0.30;;;0.10;;
34481;SDS011;20720;48.886;9.388;2024-02-04T12:12:04;0.32;;;0.10;;
34481;SDS011;20720;48.886;9.388;2024-02-04T12:14:30;0.40;;;0.10;;
34481;SDS011;20720;48.886;9.388;2024-02-04T12:16:56;1.00;;;0.20;;
34481;SDS011;20720;48.886;9.388;2024-02-04T12:19:24;0.22;;;0.10;;
34481;SDS011;20720;48.886;9.388;2024-02-04T12:21:50;0.25;;;0.10;;
34481;SDS011;20720;48.886;9.388;2024-02-04T12:24:16;0.13;;;0.03;;
34481;SDS011;20720;48.886;9.388;2024-02-04T12:26:42;0.20;;;0.10;;
34481;SDS011;20720;48.886;9.388;2024-02-04T12:29:10;0.60;;;0.20;;
34481;SDS011;20720;48.886;9.388;2024-02-04T12:31:36;0.50;;;0.10;;
34481;SDS011;20720;48.886;9.388;2024-02-04T12:34:03;0.17;;;0.00;;
34481;SDS011;20720;48.886;9.388;2024-02-04T12:36:28;0.10;;;0.00;;
34481;SDS011;20720;48.886;9.388;2024-02-04T12:38:59;0.32;;;0.10;;
34481;SDS011;20720;48.886;9.388;2024-02-04T12:41:26;1.13;;;0.20;;
34481;SDS011;20720;48.886;9.388;2024-02-04T12:43:53;0.25;;;0.10;;
34481;SDS011;20720;48.886;9.388;2024-02-04T12:46:19;0.80;;;0.25;;
34481;SDS011;20720;48.886;9.388;2024-02-04T12:48:56;0.88;;;0.30;;
34481;SDS011;20720;48.886;9.388;2024-02-04T12:51:23;1.17;;;0.20;;
34481;SDS011;20720;48.886;9.388;2024-02-04T12:54:07;0.50;;;0.20;;
34481;SDS011;20720;48.886;9.388;2024-02-04T12:56:40;0.50;;;0.20;;
34481;SDS011;20720;48.886;9.388;2024-02-04T13:02:01;1.10;;;0.40;;
34481;SDS011;20720;48.886;9.388;2024-02-04T13:04:39;0.80;;;0.30;;
34481;SDS011;20720;48.886;9.388;2024-02-04T13:07:07;0.45;;;0.20;;
34481;SDS011;20720;48.886;9.388;2024-02-04T13:09:35;0.75;;;0.20;;
34481;SDS011;20720;48.886;9.388;2024-02-04T13:12:04;0.30;;;0.10;;
34481;SDS011;20720;48.886;9.388;2024-02-04T13:14:35;0.35;;;0.20;;
34481;SDS011;20720;48.886;9.388;2024-02-04T13:17:04;0.52;;;0.10;;
34481;SDS011;20720;48.886;9.388;2024-02-04T13:19:33;1.20;;;0.20;;
34481;SDS011;20720;48.886;9.388;2024-02-04T13:21:59;0.65;;;0.30;;
34481;SDS011;20720;48.886;9.388;2024-02-04T13:24:25;0.30;;;0.13;;
34481;SDS011;20720;48.886;9.388;2024-02-04T13:26:50;0.63;;;0.15;;
34481;SDS011;20720;48.886;9.388;2024-02-04T13:29:16;0.03;;;0.00;;
34481;SDS011;20720;48.886;9.388;2024-02-04T13:31:41;0.80;;;0.35;;
34481;SDS011;20720;48.886;9.388;2024-02-04T13:34:06;2.20;;;1.30;;
34481;SDS011;20720;48.886;9.388;2024-02-04T13:36:32;1.45;;;0.90;;
34481;SDS011;20720;48.886;9.388;2024-02-04T13:38:57;0.90;;;0.47;;
34481;SDS011;20720;48.886;9.388;2024-02-04T13:41:23;0.70;;;0.30;;
34481;SDS011;20720;48.886;9.388;2024-02-04T13:43:48;1.00;;;0.30;;
34481;SDS011;20720;48.886;9.388;2024-02-04T13:46:15;1.30;;;0.75;;
34481;SDS011;20720;48.886;9.388;2024-02-04T13:48:40;2.85;;;1.60;;
34481;SDS011;20720;48.886;9.388;2024-02-04T13:51:06;1.20;;;0.52;;
34481;SDS011;20720;48.886;9.388;2024-02-04T13:53:31;0.80;;;0.45;;
34481;SDS011;20720;48.886;9.388;2024-02-04T13:55:59;1.40;;;1.00;;
34481;SDS011;20720;48.886;9.388;2024-02-04T13:58:24;0.52;;;0.30;;
34481;SDS011;20720;48.886;9.388;2024-02-04T14:00:50;1.40;;;0.50;;
34481;SDS011;20720;48.886;9.388;2024-02-04T14:03:15;1.50;;;0.50;;
34481;SDS011;20720;48.886;9.388;2024-02-04T14:05:40;0.95;;;0.40;;
34481;SDS011;20720;48.886;9.388;2024-02-04T14:08:06;0.30;;;0.10;;
34481;SDS011;20720;48.886;9.388;2024-02-04T14:10:32;0.40;;;0.20;;
34481;SDS011;20720;48.886;9.388;2024-02-04T14:12:57;1.23;;;0.50;;
34481;SDS011;20720;48.886;9.388;2024-02-04T14:15:23;0.50;;;0.17;;
34481;SDS011;20720;48.886;9.388;2024-02-04T14:17:48;0.40;;;0.20;;
34481;SDS011;20720;48.886;9.388;2024-02-04T14:20:14;0.65;;;0.20;;
34481;SDS011;20720;48.886;9.388;2024-02-04T14:22:39;2.67;;;0.47;;
34481;SDS011;20720;48.886;9.388;2024-02-04T14:25:05;0.95;;;0.40;;
34481;SDS011;20720;48.886;9.388;2024-02-04T14:27:31;0.82;;;0.40;;
34481;SDS011;20720;48.886;9.388;2024-02-04T14:29:56;0.95;;;0.32;;
34481;SDS011;20720;48.886;9.388;2024-02-04T14:32:21;1.15;;;0.50;;
34481;SDS011;20720;48.886;9.388;2024-02-04T14:34:47;1.95;;;1.05;;
34481;SDS011;20720;48.886;9.388;2024-02-04T14:37:13;1.70;;;0.75;;
34481;SDS011;20720;48.886;9.388;2024-02-04T14:39:39;1.92;;;0.93;;
34481;SDS011;20720;48.886;9.388;2024-02-04T14:42:05;2.28;;;0.95;;
34481;SDS011;20720;48.886;9.388;2024-02-04T14:44:31;2.67;;;1.20;;
34481;SDS011;20720;48.886;9.388;2024-02-04T14:46:57;2.33;;;0.80;;
34481;SDS011;20720;48.886;9.388;2024-02-04T14:49:22;4.00;;;1.20;;
34481;SDS011;20720;48.886;9.388;2024-02-04T14:51:48;4.18;;;1.05;;
34481;SDS011;20720;48.886;9.388;2024-02-04T14:54:13;3.20;;;1.10;;
34481;SDS011;20720;48.886;9.388;2024-02-04T14:56:42;4.15;;;1.40;;
34481;SDS011;20720;48.886;9.388;2024-02-04T14:59:08;4.43;;;1.55;;